PWSweather.com
Personal Weather Stations
Station Observations
KMAMEDFI2
Medfield, MA 02052

Medfield, MA 02052

Lat: 42.1900822, Lon: -71.3296889

Elevation: 138

Station Type: Rainwise WS MK-III

http://www.medfieldweather.com

High Low Average
Temperature 37.5°F3.1°C 27.6°F-2.4°C 34.5°F1.4°C
Dew Point 36.2°F2.3°C 26.1°F-3.3°C 33.2°F0.7°C
Winds 2.3 mph 3.7 kmh Calm Calm Calm SWCalm SW
Wind Gusts 3.5 mph5.6 kmh -- 1.0 mph1.6 kmh
Humidity 95% 94% 95%
Pressure 30.26 in1024.7 mb 30.11 in1019.6 mb -
Precipitation 0.13 in3.3 mm - -
Hour Temp Dew Point Humidity Winds Wind Gusts Pressure Precip Precip Rate Daily Precip Total
12:00 AM 27.6°F-2.4°C 26.1°F-3.3°C 94% Calm Calm -- 30.14 in1020.7 mb - 0.00 in0.0 mm 0.00 in0.0 mm
12:10 AM 27.9°F-2.3°C 26.4°F-3.1°C 94% Calm Calm -- 30.14 in1020.7 mb - 0.00 in0.0 mm 0.00 in0.0 mm
12:20 AM 28.5°F-1.9°C 27.0°F-2.8°C 94% Calm Calm -- 30.14 in1020.7 mb - 0.00 in0.0 mm 0.00 in0.0 mm
12:30 AM 28.9°F-1.7°C 27.4°F-2.6°C 94% Calm Calm -- 30.13 in1020.3 mb - 0.00 in0.0 mm 0.00 in0.0 mm
12:40 AM 28.8°F-1.8°C 27.3°F-2.6°C 94% Calm Calm -- 30.13 in1020.3 mb - 0.00 in0.0 mm 0.00 in0.0 mm
12:50 AM 29.1°F-1.6°C 27.6°F-2.4°C 94% Calm Calm -- 30.13 in1020.3 mb - 0.00 in0.0 mm 0.00 in0.0 mm
01:00 AM 29.3°F-1.5°C 27.8°F-2.3°C 94% Calm Calm -- 30.12 in1020.0 mb - 0.00 in0.0 mm 0.00 in0.0 mm
01:10 AM 29.8°F-1.2°C 28.3°F-2.1°C 94% Calm Calm -- 30.13 in1020.3 mb - 0.00 in0.0 mm 0.00 in0.0 mm
01:20 AM 30.2°F-1.0°C 28.7°F-1.8°C 94% Calm Calm -- 30.13 in1020.3 mb - 0.00 in0.0 mm 0.00 in0.0 mm
01:30 AM 30.5°F-0.8°C 29.0°F-1.7°C 94% Calm Calm -- 30.13 in1020.3 mb - 0.00 in0.0 mm 0.00 in0.0 mm
01:40 AM 30.8°F-0.7°C 29.3°F-1.5°C 94% Calm Calm -- 30.13 in1020.3 mb - 0.00 in0.0 mm 0.00 in0.0 mm
01:50 AM 30.9°F-0.6°C 29.4°F-1.4°C 94% Calm Calm -- 30.14 in1020.7 mb - 0.00 in0.0 mm 0.00 in0.0 mm
02:00 AM 31.1°F-0.5°C 29.9°F-1.2°C 95% Calm Calm -- 30.14 in1020.7 mb - 0.00 in0.0 mm 0.00 in0.0 mm
02:10 AM 31.4°F-0.3°C 30.1°F-1.1°C 95% Calm Calm -- 30.14 in1020.7 mb - 0.00 in0.0 mm 0.00 in0.0 mm
02:20 AM 31.6°F-0.2°C 30.3°F-0.9°C 95% Calm Calm -- 30.14 in1020.7 mb - 0.00 in0.0 mm 0.00 in0.0 mm
02:30 AM 31.9°F-0.1°C 30.6°F-0.8°C 95% Calm Calm -- 30.14 in1020.7 mb - 0.00 in0.0 mm 0.00 in0.0 mm
02:40 AM 32.0°F0.0°C 30.7°F-0.7°C 95% Calm Calm -- 30.14 in1020.7 mb - 0.00 in0.0 mm 0.00 in0.0 mm
02:50 AM 32.2°F0.1°C 30.9°F-0.6°C 95% Calm Calm -- 30.14 in1020.7 mb - 0.00 in0.0 mm 0.00 in0.0 mm
03:00 AM 32.3°F0.2°C 31.0°F-0.6°C 95% Calm Calm -- 30.14 in1020.7 mb - 0.00 in0.0 mm 0.00 in0.0 mm
03:10 AM 32.4°F0.2°C 31.1°F-0.5°C 95% Calm Calm -- 30.14 in1020.7 mb - 0.00 in0.0 mm 0.00 in0.0 mm
03:20 AM 32.5°F0.3°C 31.2°F-0.4°C 95% Calm Calm -- 30.14 in1020.7 mb - 0.00 in0.0 mm 0.00 in0.0 mm
03:30 AM 32.6°F0.3°C 31.3°F-0.4°C 95% Calm Calm -- 30.14 in1020.7 mb - 0.00 in0.0 mm 0.00 in0.0 mm
03:40 AM 32.5°F0.3°C 31.2°F-0.4°C 95% Calm Calm -- 30.15 in1021.0 mb - 0.00 in0.0 mm 0.00 in0.0 mm
03:50 AM 32.5°F0.3°C 31.2°F-0.4°C 95% Calm Calm -- 30.15 in1021.0 mb - 0.00 in0.0 mm 0.00 in0.0 mm
04:00 AM 32.5°F0.3°C 31.2°F-0.4°C 95% Calm Calm -- 30.16 in1021.3 mb - 0.00 in0.0 mm 0.00 in0.0 mm
04:10 AM 32.5°F0.3°C 31.2°F-0.4°C 95% Calm Calm -- 30.16 in1021.3 mb - 0.00 in0.0 mm 0.00 in0.0 mm
04:20 AM 32.5°F0.3°C 31.2°F-0.4°C 95% Calm Calm -- 30.16 in1021.3 mb - 0.00 in0.0 mm 0.00 in0.0 mm
04:30 AM 32.5°F0.3°C 31.2°F-0.4°C 95% Calm Calm -- 30.17 in1021.7 mb - 0.00 in0.0 mm 0.00 in0.0 mm
04:40 AM 32.4°F0.2°C 31.1°F-0.5°C 95% Calm Calm -- 30.16 in1021.3 mb - 0.00 in0.0 mm 0.00 in0.0 mm
04:50 AM 32.3°F0.2°C 31.0°F-0.6°C 95% Calm Calm -- 30.16 in1021.3 mb - 0.00 in0.0 mm 0.00 in0.0 mm
05:00 AM 32.4°F0.2°C 31.1°F-0.5°C 95% Calm Calm -- 30.16 in1021.3 mb - 0.00 in0.0 mm 0.00 in0.0 mm
05:10 AM 32.5°F0.3°C 31.2°F-0.4°C 95% Calm Calm -- 30.16 in1021.3 mb - 0.00 in0.0 mm 0.00 in0.0 mm
05:20 AM 32.5°F0.3°C 31.2°F-0.4°C 95% Calm Calm -- 30.16 in1021.3 mb - 0.00 in0.0 mm 0.00 in0.0 mm
05:30 AM 32.5°F0.3°C 31.2°F-0.4°C 95% Calm Calm -- 30.16 in1021.3 mb - 0.00 in0.0 mm 0.00 in0.0 mm
05:40 AM 32.4°F0.2°C 31.1°F-0.5°C 95% Calm Calm -- 30.16 in1021.3 mb - 0.00 in0.0 mm 0.00 in0.0 mm
05:50 AM 32.5°F0.3°C 31.2°F-0.4°C 95% Calm Calm -- 30.16 in1021.3 mb - 0.00 in0.0 mm 0.00 in0.0 mm
06:00 AM 32.5°F0.3°C 31.2°F-0.4°C 95% Calm Calm -- 30.15 in1021.0 mb - 0.00 in0.0 mm 0.00 in0.0 mm
06:10 AM 32.6°F0.3°C 31.3°F-0.4°C 95% Calm Calm -- 30.16 in1021.3 mb - 0.00 in0.0 mm 0.00 in0.0 mm
06:20 AM 32.7°F0.4°C 31.4°F-0.3°C 95% Calm Calm -- 30.16 in1021.3 mb - 0.00 in0.0 mm 0.00 in0.0 mm
06:30 AM 32.8°F0.4°C 31.5°F-0.3°C 95% Calm Calm -- 30.17 in1021.7 mb - 0.00 in0.0 mm 0.00 in0.0 mm
06:40 AM 32.9°F0.5°C 31.6°F-0.2°C 95% Calm Calm -- 30.17 in1021.7 mb - 0.00 in0.0 mm 0.00 in0.0 mm
06:50 AM 33.1°F0.6°C 31.8°F-0.1°C 95% Calm Calm -- 30.17 in1021.7 mb - 0.00 in0.0 mm 0.00 in0.0 mm
07:00 AM 33.1°F0.6°C 31.8°F-0.1°C 95% Calm Calm -- 30.17 in1021.7 mb - 0.00 in0.0 mm 0.00 in0.0 mm
07:10 AM 33.2°F0.7°C 31.9°F-0.1°C 95% Calm Calm -- 30.18 in1022.0 mb - 0.00 in0.0 mm 0.00 in0.0 mm
07:20 AM 33.3°F0.7°C 32.0°F0.0°C 95% Calm Calm -- 30.18 in1022.0 mb - 0.00 in0.0 mm 0.00 in0.0 mm
07:30 AM 33.3°F0.7°C 32.0°F0.0°C 95% Calm Calm -- 30.18 in1022.0 mb - 0.00 in0.0 mm 0.00 in0.0 mm
07:40 AM 33.4°F0.8°C 32.1°F0.1°C 95% Calm Calm -- 30.19 in1022.4 mb - 0.00 in0.0 mm 0.00 in0.0 mm
07:50 AM 33.3°F0.7°C 32.0°F0.0°C 95% Calm Calm -- 30.19 in1022.4 mb - 0.00 in0.0 mm 0.00 in0.0 mm
08:00 AM 33.3°F0.7°C 32.0°F0.0°C 95% Calm Calm -- 30.20 in1022.7 mb - 0.00 in0.0 mm 0.00 in0.0 mm
08:10 AM 33.3°F0.7°C 32.0°F0.0°C 95% Calm Calm -- 30.20 in1022.7 mb - 0.00 in0.0 mm 0.00 in0.0 mm
08:20 AM 33.4°F0.8°C 32.1°F0.1°C 95% Calm Calm -- 30.21 in1023.0 mb - 0.01 in0.3 mm 0.01 in0.3 mm
08:30 AM 33.5°F0.8°C 32.2°F0.1°C 95% Calm Calm -- 30.21 in1023.0 mb - 0.01 in0.3 mm 0.02 in0.5 mm
08:40 AM 33.6°F0.9°C 32.3°F0.2°C 95% Calm Calm -- 30.22 in1023.4 mb - 0.00 in0.0 mm 0.02 in0.5 mm
08:50 AM 33.7°F0.9°C 32.4°F0.2°C 95% Calm Calm -- 30.22 in1023.4 mb - 0.00 in0.0 mm 0.02 in0.5 mm
09:00 AM 33.8°F1.0°C 32.5°F0.3°C 95% Calm Calm -- 30.22 in1023.4 mb - 0.01 in0.3 mm 0.03 in0.8 mm
09:10 AM 33.9°F1.1°C 32.6°F0.3°C 95% Calm Calm -- 30.24 in1024.0 mb - 0.01 in0.3 mm 0.04 in1.0 mm
09:20 AM 34.1°F1.2°C 32.8°F0.4°C 95% Calm Calm -- 30.24 in1024.0 mb - 0.00 in0.0 mm 0.04 in1.0 mm
09:30 AM 34.1°F1.2°C 32.8°F0.4°C 95% Calm Calm -- 30.25 in1024.4 mb - 0.01 in0.3 mm 0.05 in1.3 mm
09:40 AM 34.3°F1.3°C 33.0°F0.6°C 95% Calm Calm -- 30.25 in1024.4 mb - 0.00 in0.0 mm 0.05 in1.3 mm
09:50 AM 34.5°F1.4°C 33.2°F0.7°C 95% Calm Calm -- 30.26 in1024.7 mb - 0.01 in0.3 mm 0.06 in1.5 mm
10:00 AM 34.7°F1.5°C 33.4°F0.8°C 95% Calm Calm -- 30.26 in1024.7 mb - 0.00 in0.0 mm 0.06 in1.5 mm
10:10 AM 34.9°F1.6°C 33.6°F0.9°C 95% Calm Calm -- 30.26 in1024.7 mb - 0.01 in0.3 mm 0.07 in1.8 mm
10:20 AM 35.1°F1.7°C 33.8°F1.0°C 95% Calm Calm -- 30.26 in1024.7 mb - 0.01 in0.3 mm 0.08 in2.0 mm
10:30 AM 35.3°F1.8°C 34.0°F1.1°C 95% Calm Calm -- 30.26 in1024.7 mb - 0.00 in0.0 mm 0.08 in2.0 mm
10:40 AM 35.6°F2.0°C 34.3°F1.3°C 95% Calm Calm -- 30.25 in1024.4 mb - 0.01 in0.3 mm 0.09 in2.3 mm
10:50 AM 35.8°F2.1°C 34.5°F1.4°C 95% Calm Calm -- 30.25 in1024.4 mb - 0.00 in0.0 mm 0.09 in2.3 mm
11:00 AM 35.9°F2.2°C 34.6°F1.4°C 95% Calm Calm -- 30.24 in1024.0 mb - 0.00 in0.0 mm 0.09 in2.3 mm
11:10 AM 36.0°F2.2°C 34.7°F1.5°C 95% Calm Calm -- 30.24 in1024.0 mb - 0.00 in0.0 mm 0.09 in2.3 mm
11:20 AM 36.1°F2.3°C 34.8°F1.6°C 95% Calm Calm -- 30.24 in1024.0 mb - 0.00 in0.0 mm 0.09 in2.3 mm
11:30 AM 36.2°F2.3°C 34.9°F1.6°C 95% Calm Calm -- 30.23 in1023.7 mb - 0.01 in0.3 mm 0.10 in2.5 mm
11:40 AM 36.3°F2.4°C 35.0°F1.7°C 95% 2.3 mph ESE3.7 kmh ESE 2.3 mph3.7 kmh 30.22 in1023.4 mb - 0.00 in0.0 mm 0.10 in2.5 mm
11:50 AM 36.5°F2.5°C 35.2°F1.8°C 95% 2.3 mph NW3.7 kmh NW 2.3 mph3.7 kmh 30.22 in1023.4 mb - 0.00 in0.0 mm 0.10 in2.5 mm
12:00 PM 36.4°F2.4°C 35.1°F1.7°C 95% 1.2 mph W1.9 kmh W 1.2 mph1.9 kmh 30.23 in1023.7 mb - 0.00 in0.0 mm 0.10 in2.5 mm
12:10 PM 36.4°F2.4°C 35.1°F1.7°C 95% 2.3 mph WNW3.7 kmh WNW 2.3 mph3.7 kmh 30.23 in1023.7 mb - 0.00 in0.0 mm 0.10 in2.5 mm
12:20 PM 36.4°F2.4°C 35.1°F1.7°C 95% 2.3 mph NE3.7 kmh NE 2.3 mph3.7 kmh 30.23 in1023.7 mb - 0.00 in0.0 mm 0.10 in2.5 mm
12:30 PM 36.4°F2.4°C 35.1°F1.7°C 95% Calm Calm -- 30.23 in1023.7 mb - 0.00 in0.0 mm 0.10 in2.5 mm
12:40 PM 36.5°F2.5°C 35.2°F1.8°C 95% 1.2 mph E1.9 kmh E 2.3 mph3.7 kmh 30.22 in1023.4 mb - 0.00 in0.0 mm 0.10 in2.5 mm
12:50 PM 36.5°F2.5°C 35.2°F1.8°C 95% Calm Calm 1.2 mph1.9 kmh 30.22 in1023.4 mb - 0.00 in0.0 mm 0.10 in2.5 mm
01:00 PM 36.6°F2.6°C 35.3°F1.8°C 95% 1.2 mph W1.9 kmh W 2.3 mph3.7 kmh 30.22 in1023.4 mb - 0.00 in0.0 mm 0.10 in2.5 mm
01:10 PM 36.6°F2.6°C 35.3°F1.8°C 95% Calm Calm -- 30.23 in1023.7 mb - 0.00 in0.0 mm 0.10 in2.5 mm
01:20 PM 36.6°F2.6°C 35.3°F1.8°C 95% Calm Calm 1.2 mph1.9 kmh 30.23 in1023.7 mb - 0.00 in0.0 mm 0.10 in2.5 mm
01:30 PM 36.6°F2.6°C 35.3°F1.8°C 95% Calm Calm -- 30.23 in1023.7 mb - 0.00 in0.0 mm 0.10 in2.5 mm
01:40 PM 36.6°F2.6°C 35.3°F1.8°C 95% Calm Calm -- 30.23 in1023.7 mb - 0.00 in0.0 mm 0.10 in2.5 mm
01:50 PM 36.7°F2.6°C 35.4°F1.9°C 95% Calm Calm -- 30.23 in1023.7 mb - 0.00 in0.0 mm 0.10 in2.5 mm
02:00 PM 36.7°F2.6°C 35.4°F1.9°C 95% Calm Calm -- 30.22 in1023.4 mb - 0.00 in0.0 mm 0.10 in2.5 mm
02:10 PM 36.8°F2.7°C 35.5°F1.9°C 95% 2.3 mph SE3.7 kmh SE 2.3 mph3.7 kmh 30.22 in1023.4 mb - 0.00 in0.0 mm 0.10 in2.5 mm
02:20 PM 37.1°F2.8°C 35.8°F2.1°C 95% 2.3 mph E3.7 kmh E 2.3 mph3.7 kmh 30.21 in1023.0 mb - 0.00 in0.0 mm 0.10 in2.5 mm
02:30 PM 37.3°F2.9°C 36.0°F2.2°C 95% 1.2 mph SE1.9 kmh SE 2.3 mph3.7 kmh 30.21 in1023.0 mb - 0.00 in0.0 mm 0.10 in2.5 mm
02:40 PM 37.5°F3.1°C 36.2°F2.3°C 95% 1.2 mph E1.9 kmh E 1.2 mph1.9 kmh 30.21 in1023.0 mb - 0.00 in0.0 mm 0.10 in2.5 mm
02:50 PM 37.5°F3.1°C 36.2°F2.3°C 95% 2.3 mph ENE3.7 kmh ENE 2.3 mph3.7 kmh 30.22 in1023.4 mb - 0.00 in0.0 mm 0.10 in2.5 mm
03:00 PM 37.5°F3.1°C 36.2°F2.3°C 95% 1.2 mph SE1.9 kmh SE 2.3 mph3.7 kmh 30.22 in1023.4 mb - 0.00 in0.0 mm 0.10 in2.5 mm
03:10 PM 37.5°F3.1°C 36.2°F2.3°C 95% Calm Calm -- 30.23 in1023.7 mb - 0.00 in0.0 mm 0.10 in2.5 mm
03:20 PM 37.3°F2.9°C 36.0°F2.2°C 95% 1.2 mph N1.9 kmh N 2.3 mph3.7 kmh 30.23 in1023.7 mb - 0.00 in0.0 mm 0.10 in2.5 mm
03:30 PM 37.3°F2.9°C 36.0°F2.2°C 95% Calm Calm -- 30.23 in1023.7 mb - 0.00 in0.0 mm 0.10 in2.5 mm
03:40 PM 37.2°F2.9°C 36.0°F2.2°C 95% Calm Calm 2.3 mph3.7 kmh 30.23 in1023.7 mb - 0.00 in0.0 mm 0.10 in2.5 mm
03:50 PM 37.2°F2.9°C 35.9°F2.2°C 95% Calm Calm -- 30.22 in1023.4 mb - 0.00 in0.0 mm 0.10 in2.5 mm
04:00 PM 37.0°F2.8°C 35.7°F2.1°C 95% Calm Calm -- 30.22 in1023.4 mb - 0.00 in0.0 mm 0.10 in2.5 mm
04:10 PM 36.9°F2.7°C 35.6°F2.0°C 95% 1.2 mph ENE1.9 kmh ENE 2.3 mph3.7 kmh 30.22 in1023.4 mb - 0.00 in0.0 mm 0.10 in2.5 mm
04:20 PM 36.8°F2.7°C 35.5°F1.9°C 95% 1.2 mph SE1.9 kmh SE 2.3 mph3.7 kmh 30.21 in1023.0 mb - 0.00 in0.0 mm 0.10 in2.5 mm
04:30 PM 36.7°F2.6°C 35.4°F1.9°C 95% 2.3 mph NNE3.7 kmh NNE 2.3 mph3.7 kmh 30.22 in1023.4 mb - 0.00 in0.0 mm 0.10 in2.5 mm
04:40 PM 36.5°F2.5°C 35.2°F1.8°C 95% 1.2 mph ENE1.9 kmh ENE 2.3 mph3.7 kmh 30.22 in1023.4 mb - 0.00 in0.0 mm 0.10 in2.5 mm
04:50 PM 36.4°F2.4°C 35.1°F1.7°C 95% 1.2 mph NW1.9 kmh NW 1.2 mph1.9 kmh 30.23 in1023.7 mb - 0.00 in0.0 mm 0.10 in2.5 mm
05:00 PM 36.3°F2.4°C 35.0°F1.7°C 95% Calm Calm -- 30.23 in1023.7 mb - 0.00 in0.0 mm 0.10 in2.5 mm
05:10 PM 36.2°F2.3°C 34.9°F1.6°C 95% Calm Calm -- 30.23 in1023.7 mb - 0.00 in0.0 mm 0.10 in2.5 mm
05:20 PM 36.1°F2.3°C 34.8°F1.6°C 95% 1.2 mph NW1.9 kmh NW 2.3 mph3.7 kmh 30.23 in1023.7 mb - 0.00 in0.0 mm 0.10 in2.5 mm
05:30 PM 35.9°F2.2°C 34.6°F1.4°C 95% Calm Calm -- 30.23 in1023.7 mb - 0.00 in0.0 mm 0.10 in2.5 mm
05:40 PM 35.8°F2.1°C 34.5°F1.4°C 95% Calm Calm -- 30.23 in1023.7 mb - 0.00 in0.0 mm 0.10 in2.5 mm
05:50 PM 35.9°F2.2°C 34.6°F1.4°C 95% 2.3 mph NE3.7 kmh NE 2.3 mph3.7 kmh 30.22 in1023.4 mb - 0.00 in0.0 mm 0.10 in2.5 mm
06:00 PM 35.9°F2.2°C 34.6°F1.4°C 95% Calm Calm -- 30.22 in1023.4 mb - 0.00 in0.0 mm 0.10 in2.5 mm
06:10 PM 36.0°F2.2°C 34.7°F1.5°C 95% Calm Calm 1.2 mph1.9 kmh 30.22 in1023.4 mb - 0.00 in0.0 mm 0.10 in2.5 mm
06:20 PM 36.1°F2.3°C 34.8°F1.6°C 95% Calm Calm -- 30.22 in1023.4 mb - 0.00 in0.0 mm 0.10 in2.5 mm
06:30 PM 35.9°F2.2°C 34.6°F1.4°C 95% Calm Calm -- 30.22 in1023.4 mb - 0.00 in0.0 mm 0.10 in2.5 mm
06:40 PM 35.9°F2.2°C 34.6°F1.4°C 95% Calm Calm -- 30.22 in1023.4 mb - 0.00 in0.0 mm 0.10 in2.5 mm
06:50 PM 35.9°F2.2°C 34.6°F1.4°C 95% 2.3 mph W3.7 kmh W 2.3 mph3.7 kmh 30.22 in1023.4 mb - 0.00 in0.0 mm 0.10 in2.5 mm
07:00 PM 36.0°F2.2°C 34.7°F1.5°C 95% Calm Calm -- 30.22 in1023.4 mb - 0.00 in0.0 mm 0.10 in2.5 mm
07:10 PM 35.9°F2.2°C 34.6°F1.4°C 95% Calm Calm 1.2 mph1.9 kmh 30.22 in1023.4 mb - 0.00 in0.0 mm 0.10 in2.5 mm
07:20 PM 35.8°F2.1°C 34.5°F1.4°C 95% Calm Calm 2.3 mph3.7 kmh 30.21 in1023.0 mb - 0.00 in0.0 mm 0.10 in2.5 mm
07:30 PM 35.9°F2.2°C 34.6°F1.4°C 95% Calm Calm -- 30.21 in1023.0 mb - 0.00 in0.0 mm 0.10 in2.5 mm
07:40 PM 36.1°F2.3°C 34.8°F1.6°C 95% Calm Calm -- 30.21 in1023.0 mb - 0.01 in0.3 mm 0.11 in2.8 mm
07:50 PM 35.9°F2.2°C 34.6°F1.4°C 95% 1.2 mph N1.9 kmh N 2.3 mph3.7 kmh 30.20 in1022.7 mb - 0.00 in0.0 mm 0.11 in2.8 mm
08:00 PM 36.2°F2.3°C 34.9°F1.6°C 95% 1.2 mph W1.9 kmh W 1.2 mph1.9 kmh 30.20 in1022.7 mb - 0.01 in0.3 mm 0.12 in3.0 mm
08:10 PM 36.2°F2.3°C 34.9°F1.6°C 95% 1.2 mph W1.9 kmh W 2.3 mph3.7 kmh 30.20 in1022.7 mb - 0.00 in0.0 mm 0.12 in3.0 mm
08:20 PM 36.4°F2.4°C 35.1°F1.7°C 95% Calm Calm -- 30.20 in1022.7 mb - 0.00 in0.0 mm 0.12 in3.0 mm
08:30 PM 36.4°F2.4°C 35.1°F1.7°C 95% 1.2 mph NNW1.9 kmh NNW 3.5 mph5.6 kmh 30.19 in1022.4 mb - 0.00 in0.0 mm 0.12 in3.0 mm
08:40 PM 36.4°F2.4°C 35.1°F1.7°C 95% Calm Calm 2.3 mph3.7 kmh 30.19 in1022.4 mb - 0.00 in0.0 mm 0.12 in3.0 mm
08:50 PM 36.4°F2.4°C 35.1°F1.7°C 95% Calm Calm -- 30.19 in1022.4 mb - 0.00 in0.0 mm 0.12 in3.0 mm
09:00 PM 36.5°F2.5°C 35.2°F1.8°C 95% Calm Calm 2.3 mph3.7 kmh 30.19 in1022.4 mb - 0.00 in0.0 mm 0.12 in3.0 mm
09:10 PM 36.6°F2.6°C 35.3°F1.8°C 95% Calm Calm -- 30.19 in1022.4 mb - 0.00 in0.0 mm 0.12 in3.0 mm
09:20 PM 36.5°F2.5°C 35.2°F1.8°C 95% Calm Calm -- 30.18 in1022.0 mb - 0.01 in0.3 mm 0.13 in3.3 mm
09:30 PM 36.3°F2.4°C 35.0°F1.7°C 95% Calm Calm -- 30.17 in1021.7 mb - 0.00 in0.0 mm 0.13 in3.3 mm
09:40 PM 36.1°F2.3°C 34.8°F1.6°C 95% Calm Calm -- 30.17 in1021.7 mb - 0.00 in0.0 mm 0.13 in3.3 mm
09:50 PM 36.2°F2.3°C 34.9°F1.6°C 95% Calm Calm -- 30.16 in1021.3 mb - 0.00 in0.0 mm 0.13 in3.3 mm
10:00 PM 36.2°F2.3°C 34.9°F1.6°C 95% Calm Calm -- 30.16 in1021.3 mb - 0.00 in0.0 mm 0.13 in3.3 mm
10:10 PM 36.3°F2.4°C 35.0°F1.7°C 95% Calm Calm -- 30.16 in1021.3 mb - 0.00 in0.0 mm 0.13 in3.3 mm
10:20 PM 36.2°F2.3°C 34.9°F1.6°C 95% Calm Calm -- 30.15 in1021.0 mb - 0.00 in0.0 mm 0.13 in3.3 mm
10:30 PM 36.1°F2.3°C 34.8°F1.6°C 95% Calm Calm -- 30.15 in1021.0 mb - 0.00 in0.0 mm 0.13 in3.3 mm
10:40 PM 36.3°F2.4°C 35.0°F1.7°C 95% Calm Calm -- 30.14 in1020.7 mb - 0.00 in0.0 mm 0.13 in3.3 mm
10:50 PM 35.9°F2.2°C 34.6°F1.4°C 95% 2.3 mph WNW3.7 kmh WNW 2.3 mph3.7 kmh 30.13 in1020.3 mb - 0.00 in0.0 mm 0.13 in3.3 mm
11:00 PM 35.7°F2.1°C 34.4°F1.3°C 95% 2.3 mph W3.7 kmh W 2.3 mph3.7 kmh 30.12 in1020.0 mb - 0.00 in0.0 mm 0.13 in3.3 mm
11:10 PM 35.4°F1.9°C 34.1°F1.2°C 95% 2.3 mph WSW3.7 kmh WSW 2.3 mph3.7 kmh 30.12 in1020.0 mb - 0.00 in0.0 mm 0.13 in3.3 mm
11:20 PM 35.2°F1.8°C 33.9°F1.1°C 95% Calm Calm -- 30.12 in1020.0 mb - 0.00 in0.0 mm 0.13 in3.3 mm
11:30 PM 35.0°F1.7°C 33.7°F0.9°C 95% 1.2 mph WSW1.9 kmh WSW 2.3 mph3.7 kmh 30.12 in1020.0 mb - 0.00 in0.0 mm 0.13 in3.3 mm
11:40 PM 34.9°F1.6°C 33.6°F0.9°C 95% Calm Calm -- 30.11 in1019.6 mb - 0.00 in0.0 mm 0.13 in3.3 mm
11:50 PM 34.7°F1.5°C 33.4°F0.8°C 95% Calm Calm -- 30.11 in1019.6 mb - 0.00 in0.0 mm 0.13 in3.3 mm